Main page
METAR-TAF:

METAR-TAF

Airports :

Florence Airport

Florence, Italy

latitude: 43-48N, longitude: 011-12E, elevation: 40 m

Current weather observation

The report was made 47 minutes ago, at 12:50 UTC
Wind 7 kt from the West, varying between South/Southwest and West/Northwest
Temperature 29°C
Humidity 35%
Pressure 1017 hPa
Visibility 10 km or more
no clouds below 1500 m and no cumulonimbus

METAR: LIRQ 171250Z 26007KT 200V300 CAVOK 29/12 Q1017

Time: 15:37 (13:37 UTC)

Forecast

The report was made 2 hours and 37 minutes ago, at 11:00 UTC
Forecast valid from 17 at 12 UTC to 18 at 12 UTC
Wind 10 kt from the West
Visibility 10 km or more
Few clouds at a height of 5000 ft
Becoming
from 17 at 18 UTC to 17 at 20 UTC
Wind 5 kt from variable directions

TAF: LIRQ 171100Z 1712/1812 26010KT 9999 FEW050 BECMG 1718/1720 VRB05KT

Weather observations and forecasts of more than 4000 airports (METAR and TAF reports).

The available stations are represented by yellow and red dots on the map.

Hover mouse over dot to see the name of the station.

Then click to see weather observations and forecasts.

To change the map : click on the green buttons with a black cross to zoom in, on the green button with a dash to zoom out, or on the green arrows for adjacent maps.


METAR-TAF: